This is the latest recevied weather packets stored in our database for station/object KC3QLX. If no packets are shown the sender has not sent any weather packets the latest 10 day(s).
| Time | Temp. | Humidity | Pressure | Rain* | Wind** | Luminosity | Snow |
|---|---|---|---|---|---|---|---|
| 1777483424 | 13.89° C | 73% | 1012.7 hPa | 0 mm | - | 64 W/m² | - |
| 1777483119 | 13.89° C | 73% | 1012.9 hPa | 0 mm | - | 74 W/m² | - |
| 1777482817 | 13.89° C | 74% | 1013.3 hPa | 0 mm | - | 82 W/m² | - |
| 1777482512 | 13.89° C | 73% | 1013.3 hPa | 0 mm | - | 98 W/m² | - |
| 1777482210 | 13.89° C | 74% | 1013.1 hPa | 0 mm | - | 104 W/m² | - |
| 1777481907 | 13.89° C | 74% | 1013 hPa | 0 mm | - | 125 W/m² | - |
| 1777481605 | 13.33° C | 73% | 1013.3 hPa | 0 mm | - | 95 W/m² | - |
| 1777481302 | 13.89° C | 73% | 1013.4 hPa | 0 mm | - | 54 W/m² | - |
| 1777480998 | 13.89° C | 73% | 1013.3 hPa | 0 mm | - | 54 W/m² | - |
| 1777480695 | 13.89° C | 73% | 1013.4 hPa | 0 mm | - | 50 W/m² | - |
| 1777480391 | 13.89° C | 73% | 1013.5 hPa | 0 mm | - | 46 W/m² | - |
| 1777480087 | 13.89° C | 72% | 1013.4 hPa | 0 mm | - | 94 W/m² | - |
| 1777479784 | 14.44° C | 71% | 1013.3 hPa | 0 mm | - | 106 W/m² | - |
| 1777479481 | 14.44° C | 70% | 1013.1 hPa | 0 mm | - | 168 W/m² | - |
| 1777479178 | 14.44° C | 71% | 1013.5 hPa | 0 mm | - | 173 W/m² | - |
| 1777478875 | 13.89° C | 73% | 1013.7 hPa | 0 mm | - | 136 W/m² | - |
| 1777478571 | 13.89° C | 71% | 1013.4 hPa | 0 mm | - | 138 W/m² | - |
| 1777478268 | 13.89° C | 72% | 1013.4 hPa | 0 mm | - | 187 W/m² | - |
| 1777477964 | 13.89° C | 72% | 1013.7 hPa | 0 mm | - | 186 W/m² | - |
| 1777477660 | 13.33° C | 73% | 1013.7 hPa | 0 mm | - | 216 W/m² | - |
| 1777477357 | 13.33° C | 73% | 1014 hPa | 0 mm | - | 122 W/m² | - |
| 1777477053 | 13.33° C | 73% | 1014 hPa | 0 mm | - | 124 W/m² | - |
| 1777476751 | 13.33° C | 73% | 1013.9 hPa | 0 mm | - | 136 W/m² | - |
| 1777476447 | 13.33° C | 73% | 1014 hPa | 0 mm | - | 130 W/m² | - |
| 1777476144 | 13.33° C | 73% | 1014 hPa | 0 mm | - | 135 W/m² | - |
* Rain latest hour (hover to see other rain measurements)
** Current wind speed in m/s (hover to see current wind gust speed)